createdAt,value
2018-09-27T00:03:37.687Z,15.4
2018-09-27T00:09:07.679Z,15.4
2018-09-27T00:20:12.575Z,15.4
2018-09-27T00:25:37.682Z,15.4
2018-09-27T00:31:06.612Z,15.4
2018-09-27T00:36:42.155Z,15.3
2018-09-27T00:42:06.664Z,15.3
2018-09-27T00:47:36.403Z,15.3
2018-09-27T00:53:11.644Z,15.3
2018-09-27T00:58:36.815Z,15.3
2018-09-27T01:04:06.405Z,15.3
2018-09-27T01:09:35.308Z,15.3
2018-09-27T01:15:10.123Z,15.3
2018-09-27T01:20:33.750Z,15.3
2018-09-27T01:26:08.022Z,15.3
2018-09-27T01:31:38.215Z,15.2
2018-09-27T01:37:03.483Z,15.2
2018-09-27T01:42:32.719Z,15.2
2018-09-27T01:48:01.952Z,15.2
2018-09-27T01:53:31.149Z,15.2
2018-09-27T01:59:00.338Z,15.2
2018-09-27T02:04:30.575Z,15.2
2018-09-27T02:10:06.481Z,15.2
2018-09-27T02:15:30.463Z,15.2
2018-09-27T02:21:04.567Z,15.2
2018-09-27T02:26:33.473Z,15.1
2018-09-27T02:32:02.964Z,15.1
2018-09-27T02:37:26.976Z,15.1
2018-09-27T02:42:57.125Z,15.1
2018-09-27T02:48:26.621Z,15.1
2018-09-27T02:54:00.578Z,15.1
2018-09-27T02:59:24.779Z,15.1
2018-09-27T03:04:53.983Z,15.1
2018-09-27T03:10:23.300Z,15.1
2018-09-27T03:15:52.394Z,15.1
2018-09-27T03:21:22.892Z,15.1
2018-09-27T03:26:51.942Z,15.1
2018-09-27T03:32:22.314Z,15.1
2018-09-27T03:37:51.277Z,15
2018-09-27T03:43:20.758Z,15
2018-09-27T03:48:49.773Z,15
2018-09-27T03:54:18.939Z,15
2018-09-27T03:59:49.187Z,15
2018-09-27T04:05:19.558Z,15
2018-09-27T04:10:49.681Z,15
2018-09-27T04:16:20.068Z,15
2018-09-27T04:21:55.034Z,15
2018-09-27T04:27:19.402Z,15
2018-09-27T04:32:48.508Z,15
2018-09-27T04:38:17.867Z,15
2018-09-27T04:43:48.099Z,15
2018-09-27T04:49:22.928Z,15
2018-09-27T04:54:47.079Z,14.9
2018-09-27T05:00:17.245Z,14.9
2018-09-27T05:05:52.025Z,14.9
2018-09-27T05:11:15.803Z,14.9
2018-09-27T05:16:50.950Z,14.9
2018-09-27T06:11:42.137Z,15.8
2018-09-27T06:17:11.931Z,15.9
2018-09-27T06:22:40.739Z,16
2018-09-27T06:28:16.055Z,16
2018-09-27T06:33:40.592Z,16.1
2018-09-27T06:39:15.017Z,16.2
2018-09-27T06:44:40.994Z,16.3
2018-09-27T06:50:09.650Z,16.3
2018-09-27T06:55:38.897Z,16.4
2018-09-27T07:01:08.286Z,16.4
2018-09-27T07:06:37.841Z,16.5
2018-09-27T07:12:07.967Z,16.6
2018-09-27T07:17:37.256Z,16.6
2018-09-27T07:39:36.620Z,16.8
2018-09-27T07:45:06.169Z,16.9
2018-09-27T07:50:36.790Z,17
2018-09-27T07:56:07.303Z,17
2018-09-27T08:01:36.480Z,17.1
2018-09-27T08:07:10.679Z,17.2
2018-09-27T08:12:41.211Z,17.3
2018-09-27T08:18:06.579Z,17.4
2018-09-27T08:23:36.092Z,17.5
2018-09-27T08:29:05.477Z,17.6
2018-09-27T08:34:35.918Z,17.7
2018-09-27T08:40:05.570Z,17.8
2018-09-27T08:45:36.292Z,17.9
2018-09-27T08:51:05.546Z,18.1
2018-09-27T08:56:36.465Z,18.2
2018-09-27T09:02:06.926Z,18.3
2018-09-27T09:07:36.376Z,18.4
2018-09-27T09:13:05.850Z,18.5
2018-09-27T09:18:36.467Z,18.6
2018-09-27T09:24:06.142Z,18.7
2018-09-27T09:29:42.720Z,18.8
2018-09-27T09:35:13.035Z,19
2018-09-27T09:40:38.652Z,19.1
2018-09-27T09:46:08.399Z,19.3
2018-09-27T09:51:37.420Z,19.5
2018-09-27T09:57:13.404Z,19.7
2018-09-27T10:02:43.100Z,19.8
2018-09-27T10:08:12.617Z,20
2018-09-27T10:13:38.653Z,20.2
2018-09-27T10:19:13.191Z,20.4
2018-09-27T10:24:39.092Z,20.7
2018-09-27T10:30:10.352Z,20.9
2018-09-27T10:35:45.103Z,21.2
2018-09-27T10:41:14.646Z,21.5
2018-09-27T10:46:39.556Z,21.8
2018-09-27T10:52:11.047Z,22
2018-09-27T11:47:16.094Z,22.8
2018-09-27T11:52:52.234Z,22.8
2018-09-27T11:58:17.203Z,22.7
2018-09-27T12:03:52.228Z,22.6
2018-09-27T12:09:17.640Z,22.5
2018-09-27T12:14:50.401Z,22.4
2018-09-27T12:20:18.274Z,22.3
2018-09-27T12:25:50.012Z,22.3
2018-09-27T12:31:25.478Z,22.2
2018-09-27T12:36:50.314Z,22.1
2018-09-27T12:42:25.554Z,22
2018-09-27T12:47:51.509Z,21.9
2018-09-27T12:53:22.280Z,21.8
2018-09-27T12:58:54.106Z,21.8
2018-09-27T13:04:24.028Z,21.7
2018-09-27T13:10:00.301Z,21.6
2018-09-27T13:15:25.077Z,21.6
2018-09-27T13:20:55.968Z,21.5
2018-09-27T13:26:31.866Z,21.5
2018-09-27T13:31:57.555Z,21.4
2018-09-27T13:37:32.703Z,21.4
2018-09-27T13:42:58.858Z,21.3
2018-09-27T13:48:33.181Z,21.3
2018-09-27T13:53:58.089Z,21.3
2018-09-27T13:59:28.086Z,21.3
2018-09-27T14:05:03.331Z,21.3
2018-09-27T14:10:27.705Z,21.4
2018-09-27T14:15:58.610Z,21.4
2018-09-27T14:21:29.504Z,21.4
2018-09-27T14:26:59.403Z,21.5
2018-09-27T14:32:30.387Z,21.5
2018-09-27T17:39:41.425Z,19.6
2018-09-27T17:45:09.135Z,19.5
2018-09-27T17:50:39.650Z,19.5
2018-09-27T17:56:15.416Z,19.5
2018-09-27T18:01:40.436Z,19.5
2018-09-27T18:07:10.694Z,19.5
2018-09-27T18:12:45.965Z,19.5
2018-09-27T18:18:11.353Z,19.5
2018-09-27T18:23:40.817Z,19.5
2018-09-27T18:29:16.008Z,19.5
2018-09-27T18:34:40.235Z,19.5
2018-09-27T18:40:15.019Z,19.5
2018-09-27T18:45:40.668Z,19.6
2018-09-27T18:51:10.434Z,19.6
2018-09-27T18:56:40.290Z,19.6
2018-09-27T19:02:14.801Z,19.6
2018-09-27T19:07:40.465Z,19.6
2018-09-27T19:13:11.192Z,19.6
2018-09-27T19:18:41.182Z,19.6
2018-09-27T19:24:12.133Z,19.6
2018-09-27T19:29:42.393Z,19.6
2018-09-27T19:35:12.208Z,19.6
2018-09-27T19:40:45.480Z,19.6
2018-09-27T19:46:18.555Z,19.6
2018-09-27T19:51:44.162Z,19.6
2018-09-27T19:57:13.901Z,19.6
2018-09-27T20:02:49.870Z,19.6
2018-09-27T20:08:14.652Z,19.6
2018-09-27T20:13:45.201Z,19.6
2018-09-27T20:19:15.906Z,19.6
2018-09-27T20:24:45.639Z,19.6
2018-09-27T20:30:16.316Z,19.6
2018-09-27T20:35:45.746Z,19.6
2018-09-27T20:41:15.811Z,19.6
2018-09-27T20:46:51.505Z,19.5
2018-09-27T20:52:15.827Z,19.5
2018-09-27T20:57:51.508Z,19.5
2018-09-27T21:03:16.607Z,19.5
2018-09-27T21:08:46.365Z,19.4
2018-09-27T21:14:16.197Z,19.4
2018-09-27T21:19:45.266Z,19.4
2018-09-27T21:25:15.173Z,19.3
2018-09-27T21:30:45.651Z,19.3
2018-09-27T21:36:16.522Z,19.3
2018-09-27T21:41:45.946Z,19.2
2018-09-27T21:47:20.598Z,19.2
2018-09-27T21:52:51.260Z,19.2
2018-09-27T21:58:21.875Z,19.1
2018-09-27T22:03:52.700Z,19.1
2018-09-27T22:09:22.189Z,19
2018-09-27T22:14:48.064Z,19
2018-09-27T22:20:23.557Z,18.9
2018-09-27T22:25:48.032Z,18.9
2018-09-27T22:31:17.976Z,18.8
2018-09-27T22:36:48.288Z,18.8
2018-09-27T22:42:23.926Z,18.7
2018-09-27T22:47:49.499Z,18.7
2018-09-27T22:53:25.067Z,18.6
2018-09-27T22:58:55.927Z,18.6
2018-09-27T23:04:20.390Z,18.5
2018-09-27T23:09:49.767Z,18.5
2018-09-27T23:15:25.612Z,18.4
2018-09-27T23:20:50.879Z,18.4
2018-09-27T23:26:26.455Z,18.3
2018-09-27T23:31:54.454Z,18.3
2018-09-27T23:37:22.432Z,18.2
2018-09-27T23:42:57.940Z,18.2
2018-09-27T23:48:22.842Z,18.1
2018-09-27T23:53:58.051Z,18.1
2018-09-27T23:59:22.594Z,18
